sensor_id;sensor_type;location;lat;lon;timestamp;temperature;humidity
5520;DHT22;2782;52.362;10.012;2024-01-16T00:00:45;18.40;52.10
5520;DHT22;2782;52.362;10.012;2024-01-16T00:01:45;18.50;52.10
5520;DHT22;2782;52.362;10.012;2024-01-16T00:02:47;18.40;52.00
5520;DHT22;2782;52.362;10.012;2024-01-16T00:03:48;18.40;52.00
5520;DHT22;2782;52.362;10.012;2024-01-16T00:04:49;18.40;52.00
5520;DHT22;2782;52.362;10.012;2024-01-16T00:05:50;18.40;52.10
5520;DHT22;2782;52.362;10.012;2024-01-16T00:06:52;18.40;52.10
5520;DHT22;2782;52.362;10.012;2024-01-16T00:07:52;18.40;52.10
5520;DHT22;2782;52.362;10.012;2024-01-16T00:08:54;18.40;52.10
5520;DHT22;2782;52.362;10.012;2024-01-16T00:09:54;18.40;52.10
5520;DHT22;2782;52.362;10.012;2024-01-16T00:10:57;18.40;52.20
5520;DHT22;2782;52.362;10.012;2024-01-16T00:11:58;18.40;52.10
5520;DHT22;2782;52.362;10.012;2024-01-16T00:12:59;18.40;52.10
5520;DHT22;2782;52.362;10.012;2024-01-16T00:14:00;18.40;52.10
5520;DHT22;2782;52.362;10.012;2024-01-16T00:15:02;18.40;52.70
5520;DHT22;2782;52.362;10.012;2024-01-16T00:16:03;18.30;52.00
5520;DHT22;2782;52.362;10.012;2024-01-16T00:17:05;18.30;52.00
5520;DHT22;2782;52.362;10.012;2024-01-16T00:18:06;18.30;52.10
5520;DHT22;2782;52.362;10.012;2024-01-16T00:19:09;18.30;52.10
5520;DHT22;2782;52.362;10.012;2024-01-16T00:20:10;18.30;52.00
5520;DHT22;2782;52.362;10.012;2024-01-16T00:21:12;18.30;52.00
5520;DHT22;2782;52.362;10.012;2024-01-16T00:22:12;18.30;52.00
5520;DHT22;2782;52.362;10.012;2024-01-16T00:23:14;18.30;52.00
5520;DHT22;2782;52.362;10.012;2024-01-16T00:24:15;18.30;51.90
5520;DHT22;2782;52.362;10.012;2024-01-16T00:25:17;18.30;52.00
5520;DHT22;2782;52.362;10.012;2024-01-16T00:26:22;18.30;52.00
5520;DHT22;2782;52.362;10.012;2024-01-16T00:27:23;18.30;52.00
5520;DHT22;2782;52.362;10.012;2024-01-16T00:28:24;18.30;52.50
5520;DHT22;2782;52.362;10.012;2024-01-16T00:29:25;18.30;51.90
5520;DHT22;2782;52.362;10.012;2024-01-16T00:30:26;18.20;51.80
5520;DHT22;2782;52.362;10.012;2024-01-16T00:31:27;18.20;51.80
5520;DHT22;2782;52.362;10.012;2024-01-16T00:32:28;18.20;51.80
5520;DHT22;2782;52.362;10.012;2024-01-16T00:33:29;18.20;51.80
5520;DHT22;2782;52.362;10.012;2024-01-16T00:34:30;18.20;51.70
5520;DHT22;2782;52.362;10.012;2024-01-16T00:35:32;18.20;51.80
5520;DHT22;2782;52.362;10.012;2024-01-16T00:36:32;18.20;51.80
5520;DHT22;2782;52.362;10.012;2024-01-16T00:37:35;18.20;51.70
5520;DHT22;2782;52.362;10.012;2024-01-16T00:38:36;18.20;51.70
5520;DHT22;2782;52.362;10.012;2024-01-16T00:39:37;18.20;51.70
5520;DHT22;2782;52.362;10.012;2024-01-16T00:40:38;18.20;51.70
5520;DHT22;2782;52.362;10.012;2024-01-16T00:41:41;18.20;51.70
5520;DHT22;2782;52.362;10.012;2024-01-16T00:42:41;18.20;51.70
5520;DHT22;2782;52.362;10.012;2024-01-16T00:43:43;18.20;51.70
5520;DHT22;2782;52.362;10.012;2024-01-16T00:44:45;18.10;51.60
5520;DHT22;2782;52.362;10.012;2024-01-16T00:45:45;18.10;51.60
5520;DHT22;2782;52.362;10.012;2024-01-16T00:46:48;18.10;51.60
5520;DHT22;2782;52.362;10.012;2024-01-16T00:47:49;18.10;51.60
5520;DHT22;2782;52.362;10.012;2024-01-16T00:48:50;18.10;51.60
5520;DHT22;2782;52.362;10.012;2024-01-16T00:49:51;18.10;51.60
5520;DHT22;2782;52.362;10.012;2024-01-16T00:50:53;18.10;51.60
5520;DHT22;2782;52.362;10.012;2024-01-16T00:51:53;18.10;51.60
5520;DHT22;2782;52.362;10.012;2024-01-16T00:52:55;18.10;51.60
5520;DHT22;2782;52.362;10.012;2024-01-16T00:53:56;18.10;51.60
5520;DHT22;2782;52.362;10.012;2024-01-16T00:54:57;18.10;51.70
5520;DHT22;2782;52.362;10.012;2024-01-16T00:55:58;18.10;51.70
5520;DHT22;2782;52.362;10.012;2024-01-16T00:57:01;18.10;51.60
5520;DHT22;2782;52.362;10.012;2024-01-16T00:58:01;18.10;51.60
5520;DHT22;2782;52.362;10.012;2024-01-16T00:59:02;18.10;51.60
5520;DHT22;2782;52.362;10.012;2024-01-16T01:00:05;18.10;51.70
5520;DHT22;2782;52.362;10.012;2024-01-16T01:01:06;18.10;51.60
5520;DHT22;2782;52.362;10.012;2024-01-16T01:02:08;18.10;51.70
5520;DHT22;2782;52.362;10.012;2024-01-16T01:03:10;18.10;51.60
5520;DHT22;2782;52.362;10.012;2024-01-16T01:04:12;18.00;51.60
5520;DHT22;2782;52.362;10.012;2024-01-16T01:05:12;18.00;51.60
5520;DHT22;2782;52.362;10.012;2024-01-16T01:06:14;18.10;51.60
5520;DHT22;2782;52.362;10.012;2024-01-16T01:07:15;18.00;51.60
5520;DHT22;2782;52.362;10.012;2024-01-16T01:08:16;18.00;51.60
5520;DHT22;2782;52.362;10.012;2024-01-16T01:09:17;18.00;51.60
5520;DHT22;2782;52.362;10.012;2024-01-16T01:10:18;18.00;51.70
5520;DHT22;2782;52.362;10.012;2024-01-16T01:11:19;18.00;51.70
5520;DHT22;2782;52.362;10.012;2024-01-16T01:12:22;18.00;51.60
5520;DHT22;2782;52.362;10.012;2024-01-16T01:13:23;18.00;51.60
5520;DHT22;2782;52.362;10.012;2024-01-16T01:14:26;18.00;51.60
5520;DHT22;2782;52.362;10.012;2024-01-16T01:15:29;18.00;51.60
5520;DHT22;2782;52.362;10.012;2024-01-16T01:16:30;18.00;51.50
5520;DHT22;2782;52.362;10.012;2024-01-16T01:17:31;18.00;51.50
5520;DHT22;2782;52.362;10.012;2024-01-16T01:18:32;18.00;51.50
5520;DHT22;2782;52.362;10.012;2024-01-16T01:19:34;18.00;51.50
5520;DHT22;2782;52.362;10.012;2024-01-16T01:20:34;17.90;51.40
5520;DHT22;2782;52.362;10.012;2024-01-16T01:21:36;17.90;51.40
5520;DHT22;2782;52.362;10.012;2024-01-16T01:22:36;17.90;51.40
5520;DHT22;2782;52.362;10.012;2024-01-16T01:23:38;18.00;51.50
5520;DHT22;2782;52.362;10.012;2024-01-16T01:24:39;17.90;51.40
5520;DHT22;2782;52.362;10.012;2024-01-16T01:25:41;17.90;51.40
5520;DHT22;2782;52.362;10.012;2024-01-16T01:26:42;17.90;51.40
5520;DHT22;2782;52.362;10.012;2024-01-16T01:27:45;17.90;51.40
5520;DHT22;2782;52.362;10.012;2024-01-16T01:28:46;17.90;51.40
5520;DHT22;2782;52.362;10.012;2024-01-16T01:29:48;17.90;51.40
5520;DHT22;2782;52.362;10.012;2024-01-16T01:30:48;17.90;51.40
5520;DHT22;2782;52.362;10.012;2024-01-16T01:31:50;17.90;51.40
5520;DHT22;2782;52.362;10.012;2024-01-16T01:32:51;17.90;51.40
5520;DHT22;2782;52.362;10.012;2024-01-16T01:33:52;17.90;51.40
5520;DHT22;2782;52.362;10.012;2024-01-16T01:34:53;17.90;51.40
5520;DHT22;2782;52.362;10.012;2024-01-16T01:35:54;17.90;51.40
5520;DHT22;2782;52.362;10.012;2024-01-16T01:36:55;17.90;51.40
5520;DHT22;2782;52.362;10.012;2024-01-16T01:37:58;17.90;51.40
5520;DHT22;2782;52.362;10.012;2024-01-16T01:38:59;17.90;51.40
5520;DHT22;2782;52.362;10.012;2024-01-16T01:40:00;17.90;51.40
5520;DHT22;2782;52.362;10.012;2024-01-16T01:41:01;17.90;51.40
5520;DHT22;2782;52.362;10.012;2024-01-16T01:42:03;17.90;51.40
5520;DHT22;2782;52.362;10.012;2024-01-16T01:43:21;17.90;51.30
5520;DHT22;2782;52.362;10.012;2024-01-16T01:44:23;17.80;51.30
5520;DHT22;2782;52.362;10.012;2024-01-16T01:45:25;17.80;51.30
5520;DHT22;2782;52.362;10.012;2024-01-16T01:46:27;17.80;51.30
5520;DHT22;2782;52.362;10.012;2024-01-16T01:47:29;17.80;51.30
5520;DHT22;2782;52.362;10.012;2024-01-16T01:48:32;17.80;51.40
5520;DHT22;2782;52.362;10.012;2024-01-16T01:49:33;17.80;51.30
5520;DHT22;2782;52.362;10.012;2024-01-16T01:50:35;17.80;51.30
5520;DHT22;2782;52.362;10.012;2024-01-16T01:51:35;17.80;51.30
5520;DHT22;2782;52.362;10.012;2024-01-16T01:52:38;17.80;51.30
5520;DHT22;2782;52.362;10.012;2024-01-16T01:53:41;17.80;51.30
5520;DHT22;2782;52.362;10.012;2024-01-16T01:54:44;17.80;51.20
5520;DHT22;2782;52.362;10.012;2024-01-16T01:55:45;17.80;51.20
5520;DHT22;2782;52.362;10.012;2024-01-16T01:56:47;17.80;51.20
5520;DHT22;2782;52.362;10.012;2024-01-16T01:57:49;17.80;51.20
5520;DHT22;2782;52.362;10.012;2024-01-16T01:58:53;17.70;51.20
5520;DHT22;2782;52.362;10.012;2024-01-16T01:59:54;17.80;51.20
5520;DHT22;2782;52.362;10.012;2024-01-16T02:00:56;17.70;51.20
5520;DHT22;2782;52.362;10.012;2024-01-16T02:01:57;17.80;51.20
5520;DHT22;2782;52.362;10.012;2024-01-16T02:02:59;17.80;51.20
5520;DHT22;2782;52.362;10.012;2024-01-16T02:04:01;17.70;51.20
5520;DHT22;2782;52.362;10.012;2024-01-16T02:05:02;17.70;51.10
5520;DHT22;2782;52.362;10.012;2024-01-16T02:06:05;17.70;51.70
5520;DHT22;2782;52.362;10.012;2024-01-16T02:07:06;17.70;51.10
5520;DHT22;2782;52.362;10.012;2024-01-16T02:08:08;17.70;51.10
5520;DHT22;2782;52.362;10.012;2024-01-16T02:09:09;17.70;51.10
5520;DHT22;2782;52.362;10.012;2024-01-16T02:10:10;17.70;51.10
5520;DHT22;2782;52.362;10.012;2024-01-16T02:11:12;17.70;51.00
5520;DHT22;2782;52.362;10.012;2024-01-16T02:12:12;17.70;51.00
5520;DHT22;2782;52.362;10.012;2024-01-16T02:13:13;17.70;51.00
5520;DHT22;2782;52.362;10.012;2024-01-16T02:14:16;17.70;51.00
5520;DHT22;2782;52.362;10.012;2024-01-16T02:15:17;17.70;51.00
5520;DHT22;2782;52.362;10.012;2024-01-16T02:16:19;17.70;51.00
5520;DHT22;2782;52.362;10.012;2024-01-16T02:17:20;17.70;51.10
5520;DHT22;2782;52.362;10.012;2024-01-16T02:18:22;17.70;51.10
5520;DHT22;2782;52.362;10.012;2024-01-16T02:19:22;17.70;51.00
5520;DHT22;2782;52.362;10.012;2024-01-16T02:20:25;17.70;51.00
5520;DHT22;2782;52.362;10.012;2024-01-16T02:21:28;17.70;51.00
5520;DHT22;2782;52.362;10.012;2024-01-16T02:22:33;17.70;51.00
5520;DHT22;2782;52.362;10.012;2024-01-16T02:23:37;17.70;51.00
5520;DHT22;2782;52.362;10.012;2024-01-16T02:24:38;17.70;51.00
5520;DHT22;2782;52.362;10.012;2024-01-16T02:25:39;17.70;50.90
5520;DHT22;2782;52.362;10.012;2024-01-16T02:26:42;17.70;51.00
5520;DHT22;2782;52.362;10.012;2024-01-16T02:27:42;17.70;51.00
5520;DHT22;2782;52.362;10.012;2024-01-16T02:28:43;17.70;50.90
5520;DHT22;2782;52.362;10.012;2024-01-16T02:29:44;17.70;50.90
5520;DHT22;2782;52.362;10.012;2024-01-16T02:30:45;17.70;50.90
5520;DHT22;2782;52.362;10.012;2024-01-16T02:31:46;17.70;50.90
5520;DHT22;2782;52.362;10.012;2024-01-16T02:32:48;17.70;50.90
5520;DHT22;2782;52.362;10.012;2024-01-16T02:33:48;17.70;50.90
5520;DHT22;2782;52.362;10.012;2024-01-16T02:34:49;17.70;50.90
5520;DHT22;2782;52.362;10.012;2024-01-16T02:35:52;17.70;50.90
5520;DHT22;2782;52.362;10.012;2024-01-16T02:36:52;17.70;50.90
5520;DHT22;2782;52.362;10.012;2024-01-16T02:37:53;17.70;50.90
5520;DHT22;2782;52.362;10.012;2024-01-16T02:38:56;17.70;50.90
5520;DHT22;2782;52.362;10.012;2024-01-16T02:39:57;17.70;50.90
5520;DHT22;2782;52.362;10.012;2024-01-16T02:40:58;17.70;50.90
5520;DHT22;2782;52.362;10.012;2024-01-16T02:41:59;17.70;50.90
5520;DHT22;2782;52.362;10.012;2024-01-16T02:43:01;17.70;50.90
5520;DHT22;2782;52.362;10.012;2024-01-16T02:44:01;17.70;50.90
5520;DHT22;2782;52.362;10.012;2024-01-16T02:45:04;17.70;50.90
5520;DHT22;2782;52.362;10.012;2024-01-16T02:46:04;17.70;50.80
5520;DHT22;2782;52.362;10.012;2024-01-16T02:47:06;17.70;50.80
5520;DHT22;2782;52.362;10.012;2024-01-16T02:48:07;17.70;50.80
5520;DHT22;2782;52.362;10.012;2024-01-16T02:49:09;17.70;50.80
5520;DHT22;2782;52.362;10.012;2024-01-16T02:50:10;17.70;50.80
5520;DHT22;2782;52.362;10.012;2024-01-16T02:51:11;17.70;50.80
5520;DHT22;2782;52.362;10.012;2024-01-16T02:52:12;17.70;50.80
5520;DHT22;2782;52.362;10.012;2024-01-16T02:53:13;17.70;50.80
5520;DHT22;2782;52.362;10.012;2024-01-16T02:54:15;17.70;50.80
5520;DHT22;2782;52.362;10.012;2024-01-16T02:55:17;17.70;50.80
5520;DHT22;2782;52.362;10.012;2024-01-16T02:56:17;17.70;50.80
5520;DHT22;2782;52.362;10.012;2024-01-16T02:57:19;17.70;50.80
5520;DHT22;2782;52.362;10.012;2024-01-16T02:58:20;17.70;50.80
5520;DHT22;2782;52.362;10.012;2024-01-16T02:59:22;17.70;50.80
5520;DHT22;2782;52.362;10.012;2024-01-16T03:00:23;17.70;50.70
5520;DHT22;2782;52.362;10.012;2024-01-16T03:01:24;17.70;50.80
5520;DHT22;2782;52.362;10.012;2024-01-16T03:02:25;17.70;50.80
5520;DHT22;2782;52.362;10.012;2024-01-16T03:03:26;17.70;50.80
5520;DHT22;2782;52.362;10.012;2024-01-16T03:04:27;17.70;50.80
5520;DHT22;2782;52.362;10.012;2024-01-16T03:05:29;17.70;51.30
5520;DHT22;2782;52.362;10.012;2024-01-16T03:06:30;17.70;50.70
5520;DHT22;2782;52.362;10.012;2024-01-16T03:07:32;17.60;50.70
5520;DHT22;2782;52.362;10.012;2024-01-16T03:08:32;17.70;50.80
5520;DHT22;2782;52.362;10.012;2024-01-16T03:09:35;17.70;50.80
5520;DHT22;2782;52.362;10.012;2024-01-16T03:10:37;17.70;50.70
5520;DHT22;2782;52.362;10.012;2024-01-16T03:11:38;17.70;50.70
5520;DHT22;2782;52.362;10.012;2024-01-16T03:12:39;17.60;50.70
5520;DHT22;2782;52.362;10.012;2024-01-16T03:13:40;17.60;50.70
5520;DHT22;2782;52.362;10.012;2024-01-16T03:14:41;17.60;50.70
5520;DHT22;2782;52.362;10.012;2024-01-16T03:15:42;17.60;50.70
5520;DHT22;2782;52.362;10.012;2024-01-16T03:16:43;17.60;50.70
5520;DHT22;2782;52.362;10.012;2024-01-16T03:17:45;17.60;50.70
5520;DHT22;2782;52.362;10.012;2024-01-16T03:18:45;17.60;50.70
5520;DHT22;2782;52.362;10.012;2024-01-16T03:19:46;17.60;50.70
5520;DHT22;2782;52.362;10.012;2024-01-16T03:20:48;17.60;50.70
5520;DHT22;2782;52.362;10.012;2024-01-16T03:21:48;17.60;50.70
5520;DHT22;2782;52.362;10.012;2024-01-16T03:22:50;17.60;50.70
5520;DHT22;2782;52.362;10.012;2024-01-16T03:23:50;17.60;50.70
5520;DHT22;2782;52.362;10.012;2024-01-16T03:24:52;17.60;50.80
5520;DHT22;2782;52.362;10.012;2024-01-16T03:25:54;17.60;50.80
5520;DHT22;2782;52.362;10.012;2024-01-16T03:26:55;17.60;50.80
5520;DHT22;2782;52.362;10.012;2024-01-16T03:27:55;17.60;50.80
5520;DHT22;2782;52.362;10.012;2024-01-16T03:28:57;17.60;50.80
5520;DHT22;2782;52.362;10.012;2024-01-16T03:29:57;17.60;50.80
5520;DHT22;2782;52.362;10.012;2024-01-16T03:30:59;17.60;50.80
5520;DHT22;2782;52.362;10.012;2024-01-16T03:31:59;17.60;50.80
5520;DHT22;2782;52.362;10.012;2024-01-16T03:33:02;17.50;50.70
5520;DHT22;2782;52.362;10.012;2024-01-16T03:34:02;17.60;50.70
5520;DHT22;2782;52.362;10.012;2024-01-16T03:35:05;17.50;50.70
5520;DHT22;2782;52.362;10.012;2024-01-16T03:36:06;17.50;50.70
5520;DHT22;2782;52.362;10.012;2024-01-16T03:37:07;17.50;50.70
5520;DHT22;2782;52.362;10.012;2024-01-16T03:38:09;17.50;50.60
5520;DHT22;2782;52.362;10.012;2024-01-16T03:39:09;17.60;50.70
5520;DHT22;2782;52.362;10.012;2024-01-16T03:40:13;17.50;50.60
5520;DHT22;2782;52.362;10.012;2024-01-16T03:41:14;17.50;50.60
5520;DHT22;2782;52.362;10.012;2024-01-16T03:42:16;17.50;50.60
5520;DHT22;2782;52.362;10.012;2024-01-16T03:43:16;17.50;50.60
5520;DHT22;2782;52.362;10.012;2024-01-16T03:44:18;17.50;50.60
5520;DHT22;2782;52.362;10.012;2024-01-16T03:45:18;17.50;50.60
5520;DHT22;2782;52.362;10.012;2024-01-16T03:46:19;17.50;50.60
5520;DHT22;2782;52.362;10.012;2024-01-16T03:47:21;17.50;50.60
5520;DHT22;2782;52.362;10.012;2024-01-16T03:48:21;17.50;50.60
5520;DHT22;2782;52.362;10.012;2024-01-16T03:49:23;17.50;50.70
5520;DHT22;2782;52.362;10.012;2024-01-16T03:50:23;17.50;50.70
5520;DHT22;2782;52.362;10.012;2024-01-16T03:51:25;17.50;50.60
5520;DHT22;2782;52.362;10.012;2024-01-16T03:52:26;17.50;50.60
5520;DHT22;2782;52.362;10.012;2024-01-16T03:53:27;17.50;50.60
5520;DHT22;2782;52.362;10.012;2024-01-16T03:54:28;17.50;50.60
5520;DHT22;2782;52.362;10.012;2024-01-16T03:55:31;17.50;50.60
5520;DHT22;2782;52.362;10.012;2024-01-16T03:56:31;17.50;50.60
5520;DHT22;2782;52.362;10.012;2024-01-16T03:57:33;17.50;50.70
5520;DHT22;2782;52.362;10.012;2024-01-16T03:58:34;17.50;50.60
5520;DHT22;2782;52.362;10.012;2024-01-16T03:59:36;17.50;50.60
5520;DHT22;2782;52.362;10.012;2024-01-16T04:00:39;17.40;51.10
5520;DHT22;2782;52.362;10.012;2024-01-16T04:01:39;17.50;50.60
5520;DHT22;2782;52.362;10.012;2024-01-16T04:02:42;17.40;50.50
5520;DHT22;2782;52.362;10.012;2024-01-16T04:03:43;17.40;50.50
5520;DHT22;2782;52.362;10.012;2024-01-16T04:04:44;17.40;50.60
5520;DHT22;2782;52.362;10.012;2024-01-16T04:05:45;17.50;50.60
5520;DHT22;2782;52.362;10.012;2024-01-16T04:06:46;17.40;50.50
5520;DHT22;2782;52.362;10.012;2024-01-16T04:07:47;17.40;50.60
5520;DHT22;2782;52.362;10.012;2024-01-16T04:08:48;17.40;50.60
5520;DHT22;2782;52.362;10.012;2024-01-16T04:09:49;17.40;50.60
5520;DHT22;2782;52.362;10.012;2024-01-16T04:10:51;17.40;50.60
5520;DHT22;2782;52.362;10.012;2024-01-16T04:11:53;17.40;50.60
5520;DHT22;2782;52.362;10.012;2024-01-16T04:12:53;17.50;50.70
5520;DHT22;2782;52.362;10.012;2024-01-16T04:13:55;17.40;50.60
5520;DHT22;2782;52.362;10.012;2024-01-16T04:14:56;17.40;50.60
5520;DHT22;2782;52.362;10.012;2024-01-16T04:15:56;17.40;50.60
5520;DHT22;2782;52.362;10.012;2024-01-16T04:16:58;17.40;50.60
5520;DHT22;2782;52.362;10.012;2024-01-16T04:17:59;17.40;50.50
5520;DHT22;2782;52.362;10.012;2024-01-16T04:19:00;17.40;50.60
5520;DHT22;2782;52.362;10.012;2024-01-16T04:20:01;17.40;50.60
5520;DHT22;2782;52.362;10.012;2024-01-16T04:21:03;17.40;50.60
5520;DHT22;2782;52.362;10.012;2024-01-16T04:22:04;17.40;50.60
5520;DHT22;2782;52.362;10.012;2024-01-16T04:23:06;17.40;50.60
5520;DHT22;2782;52.362;10.012;2024-01-16T04:24:07;17.40;50.60
5520;DHT22;2782;52.362;10.012;2024-01-16T04:25:08;17.40;50.60
5520;DHT22;2782;52.362;10.012;2024-01-16T04:26:11;17.40;50.60
5520;DHT22;2782;52.362;10.012;2024-01-16T04:27:13;17.40;50.60
5520;DHT22;2782;52.362;10.012;2024-01-16T04:28:13;17.40;50.80
5520;DHT22;2782;52.362;10.012;2024-01-16T04:29:15;17.30;50.50
5520;DHT22;2782;52.362;10.012;2024-01-16T04:30:16;17.30;50.60
5520;DHT22;2782;52.362;10.012;2024-01-16T04:31:20;17.40;50.70
5520;DHT22;2782;52.362;10.012;2024-01-16T04:32:22;17.40;50.70
5520;DHT22;2782;52.362;10.012;2024-01-16T04:33:24;17.40;50.70
5520;DHT22;2782;52.362;10.012;2024-01-16T04:34:25;17.30;50.60
5520;DHT22;2782;52.362;10.012;2024-01-16T04:35:26;17.30;50.60
5520;DHT22;2782;52.362;10.012;2024-01-16T04:36:27;17.30;50.70
5520;DHT22;2782;52.362;10.012;2024-01-16T04:37:29;17.30;50.70
5520;DHT22;2782;52.362;10.012;2024-01-16T04:38:29;17.30;50.80
5520;DHT22;2782;52.362;10.012;2024-01-16T04:39:31;17.30;50.80
5520;DHT22;2782;52.362;10.012;2024-01-16T04:40:31;17.30;50.80
5520;DHT22;2782;52.362;10.012;2024-01-16T04:41:34;17.30;50.90
5520;DHT22;2782;52.362;10.012;2024-01-16T04:42:36;17.30;50.80
5520;DHT22;2782;52.362;10.012;2024-01-16T04:43:38;17.30;50.10
5520;DHT22;2782;52.362;10.012;2024-01-16T04:44:38;17.30;50.10
5520;DHT22;2782;52.362;10.012;2024-01-16T04:45:40;17.30;50.20
5520;DHT22;2782;52.362;10.012;2024-01-16T04:46:41;17.30;50.30
5520;DHT22;2782;52.362;10.012;2024-01-16T04:47:43;17.30;50.40
5520;DHT22;2782;52.362;10.012;2024-01-16T04:48:43;17.30;50.50
5520;DHT22;2782;52.362;10.012;2024-01-16T04:49:45;17.30;50.60
5520;DHT22;2782;52.362;10.012;2024-01-16T04:50:45;17.20;50.60
5520;DHT22;2782;52.362;10.012;2024-01-16T04:51:47;17.20;50.50
5520;DHT22;2782;52.362;10.012;2024-01-16T04:52:47;17.20;50.60
5520;DHT22;2782;52.362;10.012;2024-01-16T04:53:49;17.20;50.60
5520;DHT22;2782;52.362;10.012;2024-01-16T04:54:50;17.20;50.60
5520;DHT22;2782;52.362;10.012;2024-01-16T04:55:50;17.20;50.60
5520;DHT22;2782;52.362;10.012;2024-01-16T04:56:54;17.20;50.50
5520;DHT22;2782;52.362;10.012;2024-01-16T04:57:54;17.20;50.50
5520;DHT22;2782;52.362;10.012;2024-01-16T04:58:56;17.20;50.50
5520;DHT22;2782;52.362;10.012;2024-01-16T04:59:57;17.20;50.60
5520;DHT22;2782;52.362;10.012;2024-01-16T05:00:59;17.20;50.50
5520;DHT22;2782;52.362;10.012;2024-01-16T05:01:59;17.10;50.40
5520;DHT22;2782;52.362;10.012;2024-01-16T05:03:03;17.20;50.50
5520;DHT22;2782;52.362;10.012;2024-01-16T05:04:04;17.20;50.50
5520;DHT22;2782;52.362;10.012;2024-01-16T05:05:08;17.20;50.50
5520;DHT22;2782;52.362;10.012;2024-01-16T05:06:12;17.10;50.40
5520;DHT22;2782;52.362;10.012;2024-01-16T05:07:15;17.20;50.60
5520;DHT22;2782;52.362;10.012;2024-01-16T05:08:15;17.10;50.40
5520;DHT22;2782;52.362;10.012;2024-01-16T05:09:17;17.10;50.40
5520;DHT22;2782;52.362;10.012;2024-01-16T05:10:18;17.10;50.40
5520;DHT22;2782;52.362;10.012;2024-01-16T05:11:19;17.10;50.40
5520;DHT22;2782;52.362;10.012;2024-01-16T05:12:21;17.10;50.40
5520;DHT22;2782;52.362;10.012;2024-01-16T05:13:23;17.10;50.40
5520;DHT22;2782;52.362;10.012;2024-01-16T05:14:24;17.10;50.40
5520;DHT22;2782;52.362;10.012;2024-01-16T05:15:25;17.10;50.30
5520;DHT22;2782;52.362;10.012;2024-01-16T05:16:26;17.20;50.40
5520;DHT22;2782;52.362;10.012;2024-01-16T05:17:28;17.10;50.40
5520;DHT22;2782;52.362;10.012;2024-01-16T05:18:29;17.20;50.40
5520;DHT22;2782;52.362;10.012;2024-01-16T05:19:31;17.20;50.40
5520;DHT22;2782;52.362;10.012;2024-01-16T05:20:31;17.10;50.30
5520;DHT22;2782;52.362;10.012;2024-01-16T05:21:33;17.10;50.30
5520;DHT22;2782;52.362;10.012;2024-01-16T05:22:33;17.10;50.80
5520;DHT22;2782;52.362;10.012;2024-01-16T05:23:34;17.10;50.30
5520;DHT22;2782;52.362;10.012;2024-01-16T05:24:36;17.10;50.30
5520;DHT22;2782;52.362;10.012;2024-01-16T05:25:36;17.10;50.30
5520;DHT22;2782;52.362;10.012;2024-01-16T05:26:38;17.10;50.30
5520;DHT22;2782;52.362;10.012;2024-01-16T05:27:41;17.20;50.40
5520;DHT22;2782;52.362;10.012;2024-01-16T05:28:43;17.10;50.30
5520;DHT22;2782;52.362;10.012;2024-01-16T05:29:45;17.10;50.10
5520;DHT22;2782;52.362;10.012;2024-01-16T05:30:45;17.10;50.10
5520;DHT22;2782;52.362;10.012;2024-01-16T05:31:47;17.20;50.20
5520;DHT22;2782;52.362;10.012;2024-01-16T05:32:48;17.10;50.30
5520;DHT22;2782;52.362;10.012;2024-01-16T05:33:50;17.20;50.50
5520;DHT22;2782;52.362;10.012;2024-01-16T05:34:50;17.10;50.50
5520;DHT22;2782;52.362;10.012;2024-01-16T05:35:52;17.20;50.60
5520;DHT22;2782;52.362;10.012;2024-01-16T05:36:52;17.10;50.60
5520;DHT22;2782;52.362;10.012;2024-01-16T05:37:53;17.10;50.70
5520;DHT22;2782;52.362;10.012;2024-01-16T05:38:55;17.10;50.80
5520;DHT22;2782;52.362;10.012;2024-01-16T05:39:56;17.20;50.70
5520;DHT22;2782;52.362;10.012;2024-01-16T05:40:58;17.10;50.60
5520;DHT22;2782;52.362;10.012;2024-01-16T05:41:59;17.20;50.70
5520;DHT22;2782;52.362;10.012;2024-01-16T05:43:01;17.10;50.70
5520;DHT22;2782;52.362;10.012;2024-01-16T05:44:03;17.20;50.80
5520;DHT22;2782;52.362;10.012;2024-01-16T05:45:05;17.20;51.00
5520;DHT22;2782;52.362;10.012;2024-01-16T05:46:06;17.20;51.00
5520;DHT22;2782;52.362;10.012;2024-01-16T05:47:07;17.20;51.00
5520;DHT22;2782;52.362;10.012;2024-01-16T05:48:08;17.20;50.90
5520;DHT22;2782;52.362;10.012;2024-01-16T05:49:09;17.20;50.80
5520;DHT22;2782;52.362;10.012;2024-01-16T05:50:11;17.20;50.90
5520;DHT22;2782;52.362;10.012;2024-01-16T05:51:11;17.20;51.00
5520;DHT22;2782;52.362;10.012;2024-01-16T05:52:12;17.20;51.10
5520;DHT22;2782;52.362;10.012;2024-01-16T05:53:13;17.20;51.30
5520;DHT22;2782;52.362;10.012;2024-01-16T05:54:14;17.20;51.40
5520;DHT22;2782;52.362;10.012;2024-01-16T05:55:16;17.20;51.50
5520;DHT22;2782;52.362;10.012;2024-01-16T05:56:16;17.30;51.80
5520;DHT22;2782;52.362;10.012;2024-01-16T05:57:18;17.20;52.00
5520;DHT22;2782;52.362;10.012;2024-01-16T05:58:20;17.30;52.40
5520;DHT22;2782;52.362;10.012;2024-01-16T05:59:22;17.30;52.30
5520;DHT22;2782;52.362;10.012;2024-01-16T06:00:22;17.30;52.50
5520;DHT22;2782;52.362;10.012;2024-01-16T06:01:24;17.30;52.60
5520;DHT22;2782;52.362;10.012;2024-01-16T06:02:24;17.30;52.50
5520;DHT22;2782;52.362;10.012;2024-01-16T06:03:26;17.30;52.70
5520;DHT22;2782;52.362;10.012;2024-01-16T06:04:27;17.30;52.70
5520;DHT22;2782;52.362;10.012;2024-01-16T06:05:28;17.30;52.90
5520;DHT22;2782;52.362;10.012;2024-01-16T06:06:29;17.30;53.00
5520;DHT22;2782;52.362;10.012;2024-01-16T06:07:30;17.30;53.30
5520;DHT22;2782;52.362;10.012;2024-01-16T06:08:31;17.30;53.40
5520;DHT22;2782;52.362;10.012;2024-01-16T06:09:33;17.30;53.00
5520;DHT22;2782;52.362;10.012;2024-01-16T06:10:33;17.30;52.50
5520;DHT22;2782;52.362;10.012;2024-01-16T06:11:35;17.30;52.50
5520;DHT22;2782;52.362;10.012;2024-01-16T06:12:37;17.30;52.30
5520;DHT22;2782;52.362;10.012;2024-01-16T06:13:39;17.30;52.20
5520;DHT22;2782;52.362;10.012;2024-01-16T06:14:41;17.30;52.10
5520;DHT22;2782;52.362;10.012;2024-01-16T06:15:41;17.30;52.10
5520;DHT22;2782;52.362;10.012;2024-01-16T06:16:43;17.30;52.20
5520;DHT22;2782;52.362;10.012;2024-01-16T06:17:44;17.30;52.80
5520;DHT22;2782;52.362;10.012;2024-01-16T06:18:44;17.30;53.20
5520;DHT22;2782;52.362;10.012;2024-01-16T06:19:46;17.30;53.30
5520;DHT22;2782;52.362;10.012;2024-01-16T06:20:47;17.30;53.30
5520;DHT22;2782;52.362;10.012;2024-01-16T06:21:49;17.30;53.30
5520;DHT22;2782;52.362;10.012;2024-01-16T06:22:49;17.30;53.30
5520;DHT22;2782;52.362;10.012;2024-01-16T06:23:51;17.30;53.30
5520;DHT22;2782;52.362;10.012;2024-01-16T06:24:51;17.40;53.40
5520;DHT22;2782;52.362;10.012;2024-01-16T06:25:53;17.40;53.30
5520;DHT22;2782;52.362;10.012;2024-01-16T06:26:54;17.40;53.20
5520;DHT22;2782;52.362;10.012;2024-01-16T06:27:54;17.40;52.80
5520;DHT22;2782;52.362;10.012;2024-01-16T06:28:57;17.40;52.70
5520;DHT22;2782;52.362;10.012;2024-01-16T06:29:58;17.40;52.90
5520;DHT22;2782;52.362;10.012;2024-01-16T06:30:59;17.40;52.90
5520;DHT22;2782;52.362;10.012;2024-01-16T06:32:00;17.40;52.50
5520;DHT22;2782;52.362;10.012;2024-01-16T06:33:02;17.40;52.30
5520;DHT22;2782;52.362;10.012;2024-01-16T06:34:03;17.40;52.90